Klickitat, WA

6:43 PM PDT on April 26, 2017 (GMT -0700)
High Prairie Point | | Change Station
Active Advisory: Wind Advisory

Elev 1506 ft 45.73 °N, 121.22 °W | Updated 11 minutes ago

Partly Cloudy
Partly Cloudy
47.0 °F
Feels Like 43 °F
N
9.0
Wind Variable Wind from SW
Gusts 29.0 mph

Today
High -- | Low -- °F
--% Chance of Precip.
Yesterday
High -- | Low -- °F
Precip. -- in
Pressure 29.89 in
Visibility 10.0 miles
Clouds Scattered Clouds 8000 ft
Mostly Cloudy 9000 ft
Windchill 43 °F
Dew Point 41 °F
Humidity 79%
Rainfall 0.05 in
Snow Depth Not available.
5:59 AM 8:06 PM
New Moon, 0% visible
METAR KDLS 270053Z AUTO 27014G20KT 10SM SCT080 BKN090 14/04 A2989 RMK AO2 SLP120 T01440044
Pressure 29.89 in
Visibility 10.0 miles
Clouds Scattered Clouds 8000 ft
Mostly Cloudy 9000 ft
Windchill 43 °F
Dew Point 41 °F
Humidity 79%
Rainfall 0.05 in
Snow Depth Not available.
5:59 AM 8:06 PM
New Moon, 0% visible
METAR KDLS 270053Z AUTO 27014G20KT 10SM SCT080 BKN090 14/04 A2989 RMK AO2 SLP120 T01440044

Get Your Daily Forecast Email!

Thanks for signing up!

Be on the lookout for a verification email in your inbox.

You'll start receiving severe weather alerts in your inbox..

×

10-Day Weather Forecast

Almanac

Astronomy

Apr. 26, 2017 Rise Set
Actual Time
Civil Twilight
Nautical Twilight
Astronomical Twilight
Moon
Length of Visible Light
Length of Day
Tomorrow will be .
, % of the Moon is Illuminated

Today's Extremes

State Highs State Lows

Community

WunderPhotos

WunderBlog® & News

Nearby

Air Quality

  Air Quality AQ Index Pollutant
Not available.

Snow Depth

Station Depth Elevation

Earthquake Activity

City Distance Mag. Time & Date
Minimum magnitude displayed is 2.5.

Coastal Water Temperatures

Place Temperature

Stations

Nearby Weather Stations

Station Location Temp. Windchill Dew Point Humidity Wind Precip. Elev Updated Type
                   

Watches & Warnings

Wind Advisory
Issued: 10:52 AM PDT Apr. 26, 2017 – National Weather Service

... Wind Advisory remains in effect until 9 PM PDT Thursday...

* winds... west 25 to 35 mph with gusts up to 50 mph.

* Timing... winds will increase today and peak overnight and then
begin to decrease on Thursday.

* Impacts... strong winds may blow down limbs, trees, and power
lines. Scattered power outages are expected.

Precautionary/preparedness actions...

A Wind Advisory means that winds of at least 35 mph are expected.
Winds this strong can make driving difficult... especially for
high profile vehicles. Use extra caution.